createdAt,value
2024-04-14T00:01:05.351Z,1.05
2024-04-14T00:03:57.987Z,1.27
2024-04-14T00:06:28.177Z,1.10
2024-04-14T00:08:56.552Z,1.40
2024-04-14T00:11:24.159Z,1.23
2024-04-14T00:13:52.908Z,1.50
2024-04-14T00:16:20.109Z,1.15
2024-04-14T00:18:48.086Z,1.27
2024-04-14T00:21:23.860Z,1.23
2024-04-14T00:23:53.384Z,1.23
2024-04-14T00:26:20.620Z,1.40
2024-04-14T00:28:50.393Z,1.25
2024-04-14T00:31:18.592Z,1.40
2024-04-14T00:33:46.037Z,1.30
2024-04-14T00:36:13.504Z,1.35
2024-04-14T00:38:40.768Z,1.20
2024-04-14T00:41:08.019Z,1.20
2024-04-14T00:43:35.174Z,1.08
2024-04-14T00:46:02.917Z,1.02
2024-04-14T00:48:30.219Z,1.40
2024-04-14T00:50:58.460Z,1.40
2024-04-14T00:53:25.994Z,1.23
2024-04-14T00:55:54.152Z,1.40
2024-04-14T00:58:21.448Z,1.30
2024-04-14T01:00:49.253Z,1.30
2024-04-14T01:03:16.539Z,1.38
2024-04-14T01:05:43.847Z,1.30
2024-04-14T01:08:13.073Z,1.20
2024-04-14T01:10:43.623Z,1.38
2024-04-14T01:13:10.865Z,1.15
2024-04-14T01:15:38.124Z,1.33
2024-04-14T01:18:07.817Z,1.30
2024-04-14T01:20:36.058Z,1.17
2024-04-14T01:23:03.324Z,1.52
2024-04-14T01:25:30.596Z,1.27
2024-04-14T01:27:57.992Z,1.58
2024-04-14T01:30:25.501Z,1.17
2024-04-14T01:32:57.433Z,1.25
2024-04-14T01:35:34.377Z,1.25
2024-04-14T01:38:12.433Z,1.58
2024-04-14T01:40:55.190Z,1.08
2024-04-14T01:43:43.649Z,1.20
2024-04-14T01:46:15.619Z,1.10
2024-04-14T01:48:45.167Z,1.58
2024-04-14T01:51:17.575Z,1.17
2024-04-14T01:53:49.699Z,1.38
2024-04-14T01:56:19.857Z,1.25
2024-04-14T01:58:47.499Z,1.40
2024-04-14T02:01:15.433Z,1.27
2024-04-14T02:03:50.025Z,1.42
2024-04-14T02:06:19.860Z,1.17
2024-04-14T02:08:47.553Z,1.30
2024-04-14T02:11:14.819Z,1.38
2024-04-14T02:13:42.200Z,1.58
2024-04-14T02:16:09.860Z,1.55
2024-04-14T02:18:37.450Z,1.08
2024-04-14T02:21:05.253Z,1.38
2024-04-14T02:23:32.482Z,1.42
2024-04-14T02:26:02.606Z,1.15
2024-04-14T02:28:32.344Z,1.30
2024-04-14T02:31:00.931Z,1.57
2024-04-14T02:33:28.460Z,1.40
2024-04-14T02:36:03.102Z,1.05
2024-04-14T02:38:43.023Z,1.10
2024-04-14T02:41:10.598Z,1.10
2024-04-14T02:43:40.067Z,1.23
2024-04-14T02:46:07.334Z,1.15
2024-04-14T02:48:34.589Z,1.30
2024-04-14T02:51:01.856Z,1.40
2024-04-14T02:53:30.920Z,1.40
2024-04-14T02:55:58.107Z,1.50
2024-04-14T02:58:25.267Z,1.40
2024-04-14T03:01:05.217Z,1.15
2024-04-14T03:03:35.117Z,1.40
2024-04-14T03:06:04.584Z,1.27
2024-04-14T03:08:40.288Z,1.33
2024-04-14T03:11:08.979Z,1.60
2024-04-14T03:13:36.426Z,1.30
2024-04-14T03:16:05.073Z,1.20
2024-04-14T03:18:32.456Z,1.38
2024-04-14T03:21:04.439Z,1.30
2024-04-14T03:23:33.081Z,1.42
2024-04-14T03:26:05.444Z,1.33
2024-04-14T03:28:35.450Z,1.40
2024-04-14T03:31:03.951Z,0.95
2024-04-14T03:33:31.920Z,1.20
2024-04-14T03:36:08.860Z,1.25
2024-04-14T03:38:36.505Z,1.20
2024-04-14T03:41:04.149Z,1.40
2024-04-14T03:43:31.490Z,1.40
2024-04-14T03:45:58.906Z,1.45
2024-04-14T03:48:26.390Z,1.55
2024-04-14T03:50:54.249Z,1.23
2024-04-14T03:53:21.514Z,1.48
2024-04-14T03:55:49.828Z,1.45
2024-04-14T03:58:17.102Z,1.55
2024-04-14T04:00:46.138Z,1.30
2024-04-14T04:03:13.373Z,1.27
2024-04-14T04:05:43.139Z,1.23
2024-04-14T04:08:10.331Z,1.48
2024-04-14T04:10:37.508Z,1.15
2024-04-14T04:13:04.848Z,1.50
2024-04-14T04:15:32.238Z,1.52
2024-04-14T04:17:59.512Z,1.55
2024-04-14T04:20:26.714Z,1.20
2024-04-14T04:22:53.928Z,1.45
2024-04-14T04:25:21.078Z,1.27
2024-04-14T04:27:48.333Z,1.17
2024-04-14T04:30:16.190Z,1.40
2024-04-14T04:32:43.618Z,1.30
2024-04-14T04:35:10.940Z,1.23
2024-04-14T04:37:41.053Z,1.17
2024-04-14T04:40:08.882Z,1.65
2024-04-14T04:42:38.626Z,1.38
2024-04-14T04:45:06.069Z,1.33
2024-04-14T04:47:34.867Z,1.30
2024-04-14T04:50:02.226Z,1.25
2024-04-14T04:52:29.476Z,1.45
2024-04-14T04:54:56.721Z,1.20
2024-04-14T04:57:23.962Z,1.23
2024-04-14T04:59:51.231Z,1.15
2024-04-14T05:02:18.487Z,1.35
2024-04-14T05:04:45.723Z,1.48
2024-04-14T05:07:12.913Z,1.50
2024-04-14T05:09:40.123Z,1.15
2024-04-14T05:12:10.255Z,1.30
2024-04-14T05:14:37.871Z,1.70
2024-04-14T05:17:05.099Z,1.40
2024-04-14T05:19:32.396Z,1.52
2024-04-14T05:21:59.683Z,1.42
2024-04-14T05:24:26.914Z,1.30
2024-04-14T05:26:54.143Z,1.40
2024-04-14T05:29:21.318Z,1.20
2024-04-14T05:31:48.511Z,1.25
2024-04-14T05:34:15.832Z,1.20
2024-04-14T05:36:43.034Z,1.10
2024-04-14T05:39:10.252Z,1.35
2024-04-14T05:41:37.579Z,1.30
2024-04-14T05:44:06.751Z,1.25
2024-04-14T05:46:33.971Z,1.35
2024-04-14T05:49:17.751Z,1.10
2024-04-14T05:51:48.515Z,1.30
2024-04-14T05:54:15.920Z,1.40
2024-04-14T05:56:43.289Z,1.15
2024-04-14T05:59:11.156Z,1.08
2024-04-14T06:01:39.101Z,1.20
2024-04-14T06:04:06.811Z,1.00
2024-04-14T06:06:34.312Z,1.00
2024-04-14T06:09:08.763Z,1.20
2024-04-14T06:11:36.135Z,1.08
2024-04-14T06:14:03.492Z,1.15
2024-04-14T06:16:30.897Z,0.90
2024-04-14T06:18:58.408Z,1.30
2024-04-14T06:21:28.097Z,1.08
2024-04-14T06:23:55.345Z,0.93
2024-04-14T06:26:25.045Z,1.20
2024-04-14T06:28:52.917Z,0.90
2024-04-14T06:31:21.601Z,0.90
2024-04-14T06:33:49.105Z,1.40
2024-04-14T06:36:16.495Z,1.15
2024-04-14T06:38:46.555Z,1.00
2024-04-14T06:41:14.289Z,1.05
2024-04-14T06:43:42.500Z,0.90
2024-04-14T06:46:09.914Z,1.10
2024-04-14T06:48:37.331Z,1.30
2024-04-14T06:51:05.559Z,1.10
2024-04-14T06:53:39.869Z,1.10
2024-04-14T06:56:07.528Z,0.98
2024-04-14T06:58:36.869Z,1.27
2024-04-14T07:01:04.353Z,1.05
2024-04-14T07:03:33.161Z,0.93
2024-04-14T07:06:40.258Z,1.00
2024-04-14T07:09:07.561Z,0.90
2024-04-14T07:11:34.961Z,0.80
2024-04-14T07:14:02.264Z,1.10
2024-04-14T07:16:29.455Z,1.02
2024-04-14T07:19:04.070Z,0.85
2024-04-14T07:21:31.391Z,0.93
2024-04-14T07:24:01.577Z,0.90
2024-04-14T07:26:29.305Z,0.82
2024-04-14T07:29:19.808Z,1.08
2024-04-14T07:34:15.054Z,0.75
2024-04-14T07:36:45.474Z,0.80
2024-04-14T07:39:15.878Z,1.10
2024-04-14T07:41:43.488Z,1.15
2024-04-14T07:44:13.077Z,0.98
2024-04-14T07:46:41.076Z,0.80
2024-04-14T07:49:08.280Z,0.82
2024-04-14T07:51:35.649Z,0.70
2024-04-14T07:54:02.887Z,0.77
2024-04-14T07:56:30.068Z,0.85
2024-04-14T07:58:57.235Z,0.80
2024-04-14T08:01:30.084Z,1.00
2024-04-14T08:03:58.381Z,1.30
2024-04-14T08:06:25.825Z,1.02
2024-04-14T08:09:02.586Z,0.90
2024-04-14T08:11:30.036Z,0.95
2024-04-14T08:13:57.413Z,0.88
2024-04-14T08:16:25.845Z,0.90
2024-04-14T08:18:55.529Z,1.00
2024-04-14T08:23:52.071Z,0.82
2024-04-14T08:26:19.613Z,0.80
2024-04-14T08:28:47.307Z,1.00
2024-04-14T08:31:14.791Z,0.90
2024-04-14T08:33:42.261Z,1.05
2024-04-14T08:36:14.025Z,0.73
2024-04-14T08:38:41.371Z,0.93
2024-04-14T08:41:08.687Z,0.90
2024-04-14T08:43:38.100Z,1.08
2024-04-14T08:46:07.327Z,0.75
2024-04-14T08:48:34.844Z,0.95
2024-04-14T08:51:04.017Z,0.82
2024-04-14T08:53:32.522Z,0.90
2024-04-14T08:55:59.838Z,0.93
2024-04-14T08:58:33.134Z,0.95
2024-04-14T09:01:06.592Z,1.00
2024-04-14T09:03:33.943Z,0.80
2024-04-14T09:06:07.786Z,0.90
2024-04-14T09:08:35.251Z,1.10
2024-04-14T09:11:03.359Z,0.98
2024-04-14T09:13:32.513Z,0.63
2024-04-14T09:16:03.139Z,0.75
2024-04-14T09:18:30.365Z,0.68
2024-04-14T09:21:02.785Z,0.57
2024-04-14T09:23:30.058Z,0.80
2024-04-14T09:25:59.905Z,0.80
2024-04-14T09:28:27.097Z,0.90
2024-04-14T09:30:57.016Z,0.90
2024-04-14T09:33:24.660Z,0.70
2024-04-14T09:35:52.651Z,0.80
2024-04-14T09:38:19.942Z,0.85
2024-04-14T09:40:48.417Z,0.98
2024-04-14T09:43:17.561Z,0.70
2024-04-14T09:45:45.298Z,0.80
2024-04-14T09:48:14.717Z,0.75
2024-04-14T09:50:48.404Z,0.70
2024-04-14T09:53:19.599Z,0.90
2024-04-14T09:55:47.153Z,0.95
2024-04-14T09:58:14.347Z,0.88
2024-04-14T10:00:42.173Z,0.82
2024-04-14T10:03:11.248Z,0.63
2024-04-14T10:05:43.237Z,1.20
2024-04-14T10:08:14.109Z,1.08
2024-04-14T10:10:42.579Z,1.20
2024-04-14T10:13:10.111Z,1.00
2024-04-14T10:15:45.699Z,1.17
2024-04-14T10:18:17.272Z,1.15
2024-04-14T10:20:49.466Z,1.27
2024-04-14T10:23:19.209Z,1.08
2024-04-14T10:25:53.806Z,0.70
2024-04-14T10:28:23.676Z,0.82
2024-04-14T10:31:15.856Z,1.05
2024-04-14T10:33:45.842Z,0.95
2024-04-14T10:36:13.106Z,1.20
2024-04-14T10:39:14.967Z,1.30
2024-04-14T10:41:43.023Z,0.98
2024-04-14T10:44:22.580Z,0.85
2024-04-14T10:46:59.045Z,0.70
2024-04-14T10:49:35.349Z,0.90
2024-04-14T10:52:04.420Z,0.90
2024-04-14T10:54:34.410Z,1.10
2024-04-14T10:57:03.567Z,0.70
2024-04-14T10:59:30.865Z,1.08
2024-04-14T11:03:08.825Z,0.80
2024-04-14T11:05:45.582Z,0.75
2024-04-14T11:08:46.004Z,0.85
2024-04-14T11:14:19.091Z,0.65
2024-04-14T11:16:46.715Z,0.80
2024-04-14T11:22:01.552Z,0.75
2024-04-14T11:24:28.953Z,0.82
2024-04-14T11:26:56.136Z,0.80
2024-04-14T11:29:23.363Z,1.00
2024-04-14T11:31:50.716Z,0.80
2024-04-14T11:34:19.940Z,0.80
2024-04-14T11:36:48.910Z,0.80
2024-04-14T11:39:16.659Z,0.80
2024-04-14T11:41:49.834Z,0.98
2024-04-14T11:44:19.761Z,0.63
2024-04-14T11:46:48.735Z,0.82
2024-04-14T11:49:18.582Z,0.60
2024-04-14T11:51:46.048Z,0.70
2024-04-14T11:54:13.207Z,0.70
2024-04-14T11:56:40.335Z,0.85
2024-04-14T11:59:10.998Z,1.10
2024-04-14T12:01:38.428Z,0.75
2024-04-14T12:04:06.032Z,0.73
2024-04-14T12:06:35.567Z,0.80
2024-04-14T12:09:05.197Z,0.80
2024-04-14T12:11:32.466Z,0.85
2024-04-14T12:13:59.595Z,0.75
2024-04-14T12:16:26.851Z,0.80
2024-04-14T12:18:54.121Z,0.88
2024-04-14T12:21:21.843Z,0.82
2024-04-14T12:23:49.251Z,1.23
2024-04-14T12:26:16.595Z,0.88
2024-04-14T12:28:43.715Z,0.85
2024-04-14T12:31:10.972Z,0.52
2024-04-14T12:33:38.165Z,0.80
2024-04-14T12:36:11.138Z,0.90
2024-04-14T12:38:38.516Z,0.82
2024-04-14T12:41:05.784Z,0.60
2024-04-14T12:43:33.010Z,0.90
2024-04-14T12:46:00.290Z,0.82
2024-04-14T12:48:27.574Z,0.70
2024-04-14T12:50:54.736Z,0.70
2024-04-14T12:53:25.875Z,0.93
2024-04-14T12:55:53.044Z,0.70
2024-04-14T12:58:20.193Z,0.63
2024-04-14T13:00:47.487Z,0.75
2024-04-14T13:03:14.865Z,0.80
2024-04-14T13:05:47.272Z,0.80
2024-04-14T13:08:14.387Z,0.70
2024-04-14T13:10:41.624Z,0.80
2024-04-14T13:13:09.808Z,0.68
2024-04-14T13:15:37.410Z,0.80
2024-04-14T13:18:05.098Z,0.50
2024-04-14T13:20:32.414Z,0.60
2024-04-14T13:23:00.165Z,0.70
2024-04-14T13:25:33.051Z,0.55
2024-04-14T13:28:07.274Z,0.60
2024-04-14T13:30:35.460Z,0.85
2024-04-14T13:33:02.752Z,0.75
2024-04-14T13:35:30.088Z,0.70
2024-04-14T13:37:57.466Z,0.47
2024-04-14T13:40:25.866Z,0.80
2024-04-14T13:42:53.338Z,0.60
2024-04-14T13:45:23.657Z,0.77
2024-04-14T13:47:52.321Z,0.77
2024-04-14T13:50:19.762Z,0.60
2024-04-14T13:52:47.014Z,0.70
2024-04-14T13:55:14.677Z,0.40
2024-04-14T13:57:41.996Z,0.45
2024-04-14T14:00:17.972Z,0.55
2024-04-14T14:02:45.373Z,0.88
2024-04-14T14:05:13.321Z,0.70
2024-04-14T14:07:41.086Z,0.75
2024-04-14T14:10:08.524Z,0.57
2024-04-14T14:12:35.694Z,0.90
2024-04-14T14:15:02.955Z,0.70
2024-04-14T14:17:31.246Z,0.57
2024-04-14T14:19:58.762Z,0.80
2024-04-14T14:22:26.049Z,0.60
2024-04-14T14:24:53.266Z,0.65
2024-04-14T14:27:23.760Z,0.60
2024-04-14T14:29:51.416Z,0.82
2024-04-14T14:32:21.095Z,0.52
2024-04-14T14:35:27.109Z,0.50
2024-04-14T14:37:54.283Z,0.63
2024-04-14T14:40:21.459Z,0.50
2024-04-14T14:42:49.184Z,0.60
2024-04-14T14:45:16.701Z,0.90
2024-04-14T14:47:47.817Z,0.68
2024-04-14T14:50:16.147Z,0.73
2024-04-14T14:52:43.420Z,0.70
2024-04-14T14:55:10.732Z,0.63
2024-04-14T14:57:38.032Z,0.63
2024-04-14T15:00:06.886Z,0.52
2024-04-14T15:02:35.057Z,0.57
2024-04-14T15:05:02.471Z,0.70
2024-04-14T15:07:29.713Z,0.70
2024-04-14T15:09:57.653Z,0.73
2024-04-14T15:12:24.981Z,0.50
2024-04-14T15:14:52.158Z,0.63
2024-04-14T15:17:19.474Z,0.65
2024-04-14T15:19:46.892Z,0.50
2024-04-14T15:22:18.643Z,0.70
2024-04-14T15:24:48.721Z,0.77
2024-04-14T15:27:18.164Z,0.50
2024-04-14T15:29:46.698Z,0.60
2024-04-14T15:32:13.981Z,0.50
2024-04-14T15:34:47.041Z,0.90
2024-04-14T15:37:18.141Z,0.45
2024-04-14T15:39:46.870Z,0.70
2024-04-14T15:42:14.244Z,0.68
2024-04-14T15:44:49.537Z,0.60
2024-04-14T15:47:21.460Z,0.60
2024-04-14T15:49:53.915Z,0.52
2024-04-14T15:52:23.802Z,0.60
2024-04-14T15:55:02.363Z,0.60
2024-04-14T15:57:39.919Z,0.80
2024-04-14T16:02:42.972Z,0.68
2024-04-14T16:05:21.278Z,0.65
2024-04-14T16:07:49.048Z,0.80
2024-04-14T16:10:16.635Z,0.60
2024-04-14T16:12:48.982Z,0.50
2024-04-14T16:15:17.352Z,0.80
2024-04-14T16:17:52.551Z,0.70
2024-04-14T16:20:22.594Z,0.73
2024-04-14T16:22:51.237Z,0.70
2024-04-14T16:25:18.898Z,0.45
2024-04-14T16:27:48.960Z,0.60
2024-04-14T16:30:16.197Z,0.68
2024-04-14T16:32:46.478Z,0.70
2024-04-14T16:35:13.769Z,0.80
2024-04-14T16:37:42.321Z,0.60
2024-04-14T16:40:10.205Z,0.45
2024-04-14T16:42:37.405Z,0.63
2024-04-14T16:45:06.251Z,0.50
2024-04-14T16:47:34.323Z,0.55
2024-04-14T16:50:03.076Z,0.38
2024-04-14T16:52:30.232Z,0.57
2024-04-14T16:54:57.503Z,0.40
2024-04-14T16:57:24.702Z,0.50
2024-04-14T16:59:52.211Z,0.35
2024-04-14T17:02:19.402Z,0.40
2024-04-14T17:04:46.738Z,0.38
2024-04-14T17:07:16.964Z,0.50
2024-04-14T17:09:45.136Z,0.40
2024-04-14T17:12:13.232Z,0.35
2024-04-14T17:14:43.235Z,0.65
2024-04-14T17:17:12.571Z,0.38
2024-04-14T17:19:39.696Z,0.30
2024-04-14T17:22:06.887Z,0.30
2024-04-14T17:24:34.099Z,0.30
2024-04-14T17:27:01.262Z,0.32
2024-04-14T17:29:29.099Z,0.38
2024-04-14T17:31:56.256Z,0.30
2024-04-14T17:34:24.388Z,0.40
2024-04-14T17:36:51.634Z,0.40
2024-04-14T17:39:18.787Z,0.50
2024-04-14T17:41:48.652Z,0.30
2024-04-14T17:44:18.798Z,0.40
2024-04-14T17:46:45.908Z,0.47
2024-04-14T17:49:13.100Z,0.40
2024-04-14T17:51:43.732Z,0.30
2024-04-14T17:54:17.490Z,0.50
2024-04-14T17:56:44.652Z,0.50
2024-04-14T17:59:13.219Z,0.30
2024-04-14T18:01:40.837Z,0.60
2024-04-14T18:04:11.740Z,0.40
2024-04-14T18:06:39.491Z,0.40
2024-04-14T18:09:06.897Z,0.20
2024-04-14T18:11:34.143Z,0.40
2024-04-14T18:14:01.541Z,0.22
2024-04-14T18:16:28.741Z,0.20
2024-04-14T18:18:55.935Z,0.20
2024-04-14T18:21:23.170Z,0.20
2024-04-14T18:23:50.311Z,0.30
2024-04-14T18:26:20.227Z,0.15
2024-04-14T18:28:58.836Z,0.20
2024-04-14T18:31:26.271Z,0.20
2024-04-14T18:33:53.695Z,0.28
2024-04-14T18:36:26.116Z,0.13
2024-04-14T18:38:58.804Z,0.28
2024-04-14T18:41:26.007Z,0.17
2024-04-14T18:43:57.549Z,0.20
2024-04-14T18:46:36.255Z,0.20
2024-04-14T18:49:03.635Z,0.28
2024-04-14T18:51:30.929Z,0.30
2024-04-14T18:53:58.090Z,0.15
2024-04-14T18:56:25.229Z,0.17
2024-04-14T18:58:52.395Z,0.20
2024-04-14T19:01:19.701Z,0.22
2024-04-14T19:03:47.245Z,0.17
2024-04-14T19:06:14.561Z,0.30
2024-04-14T19:08:41.741Z,0.13
2024-04-14T19:11:09.139Z,0.20
2024-04-14T19:13:36.516Z,0.17
2024-04-14T19:16:05.406Z,0.30
2024-04-14T19:18:33.227Z,0.30
2024-04-14T19:21:00.449Z,0.55
2024-04-14T19:23:27.583Z,0.55
2024-04-14T19:26:02.726Z,0.43
2024-04-14T19:28:29.966Z,0.40
2024-04-14T19:30:57.181Z,0.60
2024-04-14T19:33:24.397Z,0.50
2024-04-14T19:35:57.139Z,0.40
2024-04-14T19:38:29.718Z,0.30
2024-04-14T19:40:58.747Z,0.40
2024-04-14T19:43:25.985Z,0.20
2024-04-14T19:45:53.282Z,0.38
2024-04-14T19:48:20.644Z,0.65
2024-04-14T19:50:48.194Z,0.63
2024-04-14T19:53:19.746Z,0.82
2024-04-14T19:55:47.739Z,0.90
2024-04-14T19:58:18.063Z,1.30
2024-04-14T20:00:49.759Z,1.10
2024-04-14T20:03:50.348Z,0.80
2024-04-14T20:07:24.528Z,0.70
2024-04-14T20:09:51.909Z,0.60
2024-04-14T20:12:21.616Z,0.50
2024-04-14T20:14:49.824Z,0.60
2024-04-14T20:17:17.103Z,0.88
2024-04-14T20:20:18.631Z,0.60
2024-04-14T20:22:47.223Z,0.77
2024-04-14T20:25:15.960Z,0.50
2024-04-14T20:28:07.699Z,0.50
2024-04-14T20:30:34.884Z,0.60
2024-04-14T20:33:05.694Z,0.45
2024-04-14T20:35:40.537Z,0.40
2024-04-14T20:38:07.963Z,0.55
2024-04-14T20:40:36.473Z,0.50
2024-04-14T20:43:06.509Z,0.50
2024-04-14T20:45:33.818Z,0.60
2024-04-14T20:48:02.530Z,0.50
2024-04-14T20:51:00.551Z,0.40
2024-04-14T20:57:07.857Z,0.60
2024-04-14T21:00:08.568Z,0.50
2024-04-14T21:03:01.704Z,0.60
2024-04-14T21:05:34.263Z,0.40
2024-04-14T21:05:42.383Z,0.50
2024-04-14T21:08:14.035Z,0.40
2024-04-14T21:10:47.168Z,0.32
2024-04-14T21:13:22.293Z,0.20
2024-04-14T21:15:49.451Z,0.47
2024-04-14T21:18:16.790Z,0.35
2024-04-14T21:20:44.057Z,0.17
2024-04-14T21:23:11.234Z,0.38
2024-04-14T21:29:06.815Z,0.20
2024-04-14T21:31:34.003Z,0.30
2024-04-14T21:34:08.830Z,0.40
2024-04-14T21:36:48.937Z,0.38
2024-04-14T21:45:07.020Z,0.20
2024-04-14T21:48:17.723Z,0.10
2024-04-14T21:51:27.796Z,0.15
2024-04-14T21:53:54.986Z,0.20
2024-04-14T21:56:22.190Z,0.22
2024-04-14T21:58:50.546Z,0.20
2024-04-14T22:01:18.375Z,0.35
2024-04-14T22:03:55.183Z,0.30
2024-04-14T22:06:28.486Z,0.25
2024-04-14T22:08:55.694Z,0.20
2024-04-14T22:11:22.957Z,0.40
2024-04-14T22:13:50.120Z,0.30
2024-04-14T22:16:17.535Z,0.25
2024-04-14T22:18:44.719Z,0.35
2024-04-14T22:21:11.940Z,0.30
2024-04-14T22:23:39.085Z,0.50
2024-04-14T22:26:06.284Z,0.30
2024-04-14T22:28:34.318Z,0.60
2024-04-14T22:31:01.574Z,0.50
2024-04-14T22:33:28.800Z,0.70
2024-04-14T22:35:55.974Z,0.57
2024-04-14T22:38:23.924Z,0.70
2024-04-14T22:40:51.086Z,0.80
2024-04-14T22:43:18.514Z,0.80
2024-04-14T22:45:46.449Z,0.82
2024-04-14T22:48:13.655Z,0.90
2024-04-14T22:50:40.837Z,0.98
2024-04-14T22:53:08.245Z,0.80
2024-04-14T22:55:37.114Z,0.68
2024-04-14T22:58:04.489Z,0.73
2024-04-14T23:00:31.635Z,0.65
2024-04-14T23:02:58.917Z,0.70
2024-04-14T23:05:26.631Z,0.70
2024-04-14T23:07:53.795Z,0.77
2024-04-14T23:10:22.478Z,0.80
2024-04-14T23:12:50.443Z,0.82
2024-04-14T23:15:17.676Z,0.68
2024-04-14T23:17:51.560Z,0.70
2024-04-14T23:20:18.778Z,0.55
2024-04-14T23:22:45.903Z,0.63
2024-04-14T23:25:13.109Z,0.70
2024-04-14T23:27:40.283Z,0.85
2024-04-14T23:30:08.599Z,0.70
2024-04-14T23:32:36.057Z,0.80
2024-04-14T23:35:03.211Z,0.70
2024-04-14T23:37:30.321Z,0.50
2024-04-14T23:39:57.445Z,0.70
2024-04-14T23:42:24.539Z,0.80
2024-04-14T23:44:51.766Z,1.17
2024-04-14T23:47:18.963Z,1.00
2024-04-14T23:49:46.055Z,0.93
2024-04-14T23:52:15.874Z,1.00
2024-04-14T23:57:10.939Z,1.25
2024-04-14T23:59:38.031Z,0.93
